createdAt,value
2024-04-11T00:28:51.582Z,7
2024-04-11T00:57:48.823Z,7
2024-04-11T01:25:56.592Z,6
2024-04-11T01:54:12.856Z,5
2024-04-11T02:22:38.393Z,5
2024-04-11T02:50:57.521Z,5
2024-04-11T03:19:24.286Z,5
2024-04-11T03:47:42.722Z,7
2024-04-11T04:15:55.529Z,8
2024-04-11T04:44:51.375Z,9
2024-04-11T05:13:50.213Z,7
2024-04-11T05:42:38.261Z,7
2024-04-11T06:11:59.213Z,5
2024-04-11T06:41:26.726Z,5
2024-04-11T07:10:33.824Z,8
2024-04-11T07:39:21.602Z,7
2024-04-11T08:08:08.310Z,7
2024-04-11T08:37:10.408Z,7
2024-04-11T09:06:06.503Z,7
2024-04-11T09:35:20.130Z,8
2024-04-11T10:04:04.638Z,10
2024-04-11T10:33:13.868Z,11
2024-04-11T11:01:56.050Z,5
2024-04-11T11:29:58.421Z,5
2024-04-11T11:59:13.001Z,4
2024-04-11T12:28:14.625Z,4
2024-04-11T12:57:23.438Z,4
2024-04-11T13:26:29.863Z,4
2024-04-11T13:55:40.959Z,4
2024-04-11T14:24:42.670Z,4
2024-04-11T14:52:55.570Z,4
2024-04-11T15:21:22.451Z,4
2024-04-11T15:49:37.568Z,4
2024-04-11T16:17:56.866Z,4
2024-04-11T16:46:13.735Z,4
2024-04-11T17:14:29.781Z,5
2024-04-11T17:42:47.565Z,6
2024-04-11T18:11:09.075Z,7
2024-04-11T18:39:22.409Z,7
2024-04-11T19:07:35.559Z,11
2024-04-11T19:36:31.435Z,11
2024-04-11T20:05:23.210Z,10
2024-04-11T20:34:24.482Z,8
2024-04-11T21:03:23.713Z,11
2024-04-11T21:32:13.432Z,10
2024-04-11T22:01:17.044Z,7
2024-04-11T22:30:19.758Z,7
2024-04-11T22:59:29.211Z,10
2024-04-11T23:28:23.460Z,6
2024-04-11T23:57:20.045Z,7
